createdAt,value
2018-05-07T00:04:13.366Z,9.20
2018-05-07T00:08:56.686Z,9.10
2018-05-07T00:13:40.015Z,8.90
2018-05-07T00:18:24.113Z,8.80
2018-05-07T00:23:07.590Z,8.80
2018-05-07T00:27:50.928Z,8.80
2018-05-07T00:32:34.231Z,8.80
2018-05-07T00:37:17.553Z,8.80
2018-05-07T00:42:01.745Z,8.80
2018-05-07T00:46:45.119Z,8.80
2018-05-07T00:51:29.290Z,8.40
2018-05-07T00:56:12.749Z,8.40
2018-05-07T01:00:56.196Z,8.50
2018-05-07T01:05:39.581Z,8.70
2018-05-07T01:10:22.903Z,8.80
2018-05-07T01:15:06.520Z,8.70
2018-05-07T01:19:50.630Z,8.10
2018-05-07T01:24:33.972Z,8.10
2018-05-07T01:29:17.305Z,7.90
2018-05-07T01:45:32.671Z,8.60
2018-05-07T01:50:16.926Z,8.60
2018-05-07T01:55:14.637Z,8.50
2018-05-07T02:00:01.776Z,8.30
2018-05-07T02:04:50.211Z,7.90
2018-05-07T02:09:45.946Z,8.00
2018-05-07T02:14:30.958Z,8.10
2018-05-07T02:19:15.512Z,8.00
2018-05-07T02:23:58.842Z,7.90
2018-05-07T02:28:42.938Z,7.40
2018-05-07T02:33:26.309Z,7.40
2018-05-07T02:38:09.661Z,7.00
2018-05-07T02:42:53.076Z,6.70
2018-05-07T02:47:36.368Z,6.70
2018-05-07T02:52:20.604Z,6.40
2018-05-07T02:57:03.895Z,6.40
2018-05-07T03:01:47.291Z,6.30
2018-05-07T03:06:30.734Z,6.20
2018-05-07T03:11:14.073Z,6.20
2018-05-07T03:15:57.379Z,6.10
2018-05-07T03:20:40.716Z,6.00
2018-05-07T03:25:24.053Z,5.80
2018-05-07T03:30:07.369Z,5.80
2018-05-07T03:34:50.702Z,5.80
2018-05-07T03:50:02.593Z,6.70
2018-05-07T03:54:48.447Z,7.60
2018-05-07T03:59:35.413Z,8.40
2018-05-07T04:04:18.846Z,8.60
2018-05-07T04:09:08.640Z,8.20
2018-05-07T04:13:56.306Z,8.10
2018-05-07T04:18:55.594Z,8.00
2018-05-07T04:23:54.625Z,8.20
2018-05-07T04:28:38.687Z,8.40
2018-05-07T04:33:39.658Z,8.60
2018-05-07T04:38:23.956Z,8.80
2018-05-07T04:43:13.136Z,9.10
2018-05-07T04:48:00.126Z,9.20
2018-05-07T04:52:48.731Z,9.50
2018-05-07T04:57:40.714Z,9.70
2018-05-07T05:02:36.214Z,9.80
2018-05-07T05:07:21.158Z,9.90
2018-05-07T05:12:11.481Z,9.90
2018-05-07T05:16:59.154Z,10.00
2018-05-07T05:21:48.468Z,10.30
2018-05-07T05:26:49.144Z,10.50
2018-05-07T05:31:39.123Z,10.90
2018-05-07T05:36:30.942Z,11.30
2018-05-07T05:41:16.383Z,11.80
2018-05-07T05:46:11.414Z,12.60
2018-05-07T05:50:55.574Z,12.60
2018-05-07T05:55:39.648Z,13.30
2018-05-07T06:00:23.012Z,13.30
2018-05-07T06:05:06.437Z,13.80
2018-05-07T06:09:49.902Z,14.20
2018-05-07T06:14:33.280Z,14.50
2018-05-07T06:19:16.554Z,14.90
2018-05-07T06:23:59.925Z,15.00
2018-05-07T06:28:43.303Z,15.30
2018-05-07T06:33:26.779Z,15.50
2018-05-07T06:38:10.165Z,15.80
2018-05-07T06:42:53.530Z,16.10
2018-05-07T06:47:36.817Z,16.30
2018-05-07T06:52:21.040Z,17.10
2018-05-07T06:57:04.340Z,17.10
2018-05-07T07:01:48.615Z,17.70
2018-05-07T07:06:32.034Z,17.70
2018-05-07T07:11:16.139Z,18.10
2018-05-07T07:15:59.490Z,18.10
2018-05-07T07:20:42.824Z,18.50
2018-05-07T07:25:26.243Z,18.60
2018-05-07T07:30:09.546Z,18.90
2018-05-07T07:34:52.871Z,19.00
2018-05-07T07:39:36.177Z,19.50
2018-05-07T07:44:19.471Z,19.50
2018-05-07T07:49:02.774Z,19.90
2018-05-07T07:53:46.112Z,20.10
2018-05-07T07:58:29.507Z,20.30
2018-05-07T08:03:12.829Z,20.70
2018-05-07T08:07:56.225Z,20.80
2018-05-07T08:12:39.558Z,21.20
2018-05-07T08:17:22.887Z,21.40
2018-05-07T08:22:06.970Z,22.20
2018-05-07T08:26:50.266Z,22.20
2018-05-07T08:31:34.383Z,22.20
2018-05-07T08:36:17.747Z,22.20
2018-05-07T08:41:01.142Z,22.50
2018-05-07T08:45:44.467Z,22.40
2018-05-07T08:50:27.838Z,22.60
2018-05-07T08:55:11.167Z,22.80
2018-05-07T08:59:55.220Z,23.50
2018-05-07T09:04:38.556Z,23.40
2018-05-07T09:09:21.935Z,23.70
2018-05-07T09:14:05.433Z,23.90
2018-05-07T09:18:49.531Z,24.00
2018-05-07T09:23:32.925Z,23.90
2018-05-07T09:28:16.999Z,23.90
2018-05-07T09:33:00.342Z,23.80
2018-05-07T09:37:43.683Z,23.80
2018-05-07T09:42:27.028Z,23.60
2018-05-07T09:47:10.386Z,23.80
2018-05-07T09:51:53.711Z,24.20
2018-05-07T09:56:48.945Z,24.40
2018-05-07T10:01:32.285Z,24.80
2018-05-07T10:06:15.616Z,24.50
2018-05-07T10:10:58.965Z,24.70
2018-05-07T10:15:42.394Z,24.80
2018-05-07T10:20:25.838Z,24.60
2018-05-07T10:25:09.188Z,24.50
2018-05-07T10:29:52.545Z,24.70
2018-05-07T10:34:35.843Z,25.30
2018-05-07T10:39:19.224Z,25.30
2018-05-07T10:44:02.575Z,25.90
2018-05-07T10:48:45.998Z,25.70
2018-05-07T10:53:29.354Z,25.50
2018-05-07T10:58:12.651Z,25.60
2018-05-07T11:02:55.972Z,25.60
2018-05-07T11:07:39.464Z,25.40
2018-05-07T11:12:22.843Z,25.40
2018-05-07T11:17:06.172Z,25.40
2018-05-07T11:21:50.710Z,26.20
2018-05-07T11:26:34.948Z,26.10
2018-05-07T11:31:18.234Z,26.10
2018-05-07T11:36:01.580Z,26.10
2018-05-07T11:40:44.936Z,26.20
2018-05-07T11:45:28.282Z,26.00
2018-05-07T11:50:12.392Z,26.40
2018-05-07T11:54:55.702Z,26.40
2018-05-07T11:59:39.108Z,26.50
2018-05-07T12:04:22.399Z,27.00
2018-05-07T12:09:05.875Z,27.30
2018-05-07T12:13:49.221Z,27.40
2018-05-07T12:18:32.545Z,27.60
2018-05-07T12:23:16.746Z,27.70
2018-05-07T12:28:00.025Z,27.50
2018-05-07T12:32:43.342Z,27.40
2018-05-07T12:37:26.653Z,27.50
2018-05-07T12:42:10.774Z,27.70
2018-05-07T12:46:54.157Z,27.60
2018-05-07T12:51:37.484Z,27.80
2018-05-07T12:56:20.790Z,27.70
2018-05-07T13:01:04.125Z,28.40
2018-05-07T13:05:47.549Z,28.20
2018-05-07T13:10:30.846Z,28.20
2018-05-07T13:15:14.142Z,28.30
2018-05-07T13:19:57.522Z,27.80
2018-05-07T13:24:40.923Z,27.70
2018-05-07T13:29:24.305Z,27.40
2018-05-07T13:34:08.425Z,27.30
2018-05-07T13:38:51.767Z,27.20
2018-05-07T13:43:35.046Z,27.50
2018-05-07T13:48:18.376Z,27.90
2018-05-07T13:53:01.763Z,27.40
2018-05-07T13:57:45.182Z,27.30
2018-05-07T14:02:28.462Z,27.50
2018-05-07T14:07:11.784Z,27.60
2018-05-07T14:11:55.229Z,27.50
2018-05-07T14:16:38.613Z,27.60
2018-05-07T14:21:21.983Z,27.70
2018-05-07T14:26:05.490Z,27.70
2018-05-07T14:30:48.832Z,28.00
2018-05-07T14:35:32.183Z,28.10
2018-05-07T14:40:15.561Z,27.80
2018-05-07T14:44:58.977Z,28.00
2018-05-07T14:49:42.287Z,28.00
2018-05-07T14:54:25.651Z,28.10
2018-05-07T14:59:08.972Z,28.20
2018-05-07T15:03:52.456Z,27.70
2018-05-07T15:08:35.785Z,27.50
2018-05-07T15:13:19.203Z,27.70
2018-05-07T15:18:02.461Z,27.40
2018-05-07T15:22:46.637Z,27.60
2018-05-07T15:27:30.750Z,27.50
2018-05-07T15:32:14.102Z,27.50
2018-05-07T15:36:57.444Z,27.60
2018-05-07T15:41:40.822Z,27.70
2018-05-07T15:46:24.255Z,28.00
2018-05-07T15:51:07.876Z,28.50
2018-05-07T15:55:52.264Z,29.00
2018-05-07T16:00:35.578Z,29.00
2018-05-07T16:05:18.914Z,29.20
2018-05-07T16:10:02.335Z,29.60
2018-05-07T16:14:45.855Z,29.70
2018-05-07T16:19:29.254Z,29.70
2018-05-07T16:24:12.683Z,29.00
2018-05-07T16:28:56.269Z,29.10
2018-05-07T16:33:39.633Z,29.30
2018-05-07T16:38:23.286Z,29.30
2018-05-07T16:43:07.071Z,29.30
2018-05-07T16:47:50.455Z,29.30
2018-05-07T16:52:34.596Z,29.60
2018-05-07T16:57:17.963Z,29.70
2018-05-07T17:02:02.230Z,29.40
2018-05-07T17:06:45.742Z,29.40
2018-05-07T17:11:29.176Z,29.50
2018-05-07T17:16:12.599Z,29.40
2018-05-07T17:20:57.330Z,29.20
2018-05-07T17:25:41.063Z,28.70
2018-05-07T17:30:27.071Z,27.10
2018-05-07T17:35:11.225Z,25.10
2018-05-07T17:39:58.248Z,23.60
2018-05-07T17:44:56.321Z,22.70
2018-05-07T17:49:44.779Z,21.80
2018-05-07T17:54:28.361Z,21.00
2018-05-07T17:59:14.330Z,20.60
2018-05-07T18:03:59.705Z,20.20
2018-05-07T18:08:45.644Z,19.60
2018-05-07T18:13:29.153Z,19.50
2018-05-07T18:18:12.775Z,19.20
2018-05-07T18:22:56.271Z,18.80
2018-05-07T18:27:44.557Z,18.20
2018-05-07T18:32:29.489Z,18.20
2018-05-07T18:37:15.083Z,18.10
2018-05-07T18:42:00.881Z,17.80
2018-05-07T18:46:44.297Z,17.40
2018-05-07T18:51:28.104Z,17.10
2018-05-07T18:56:15.257Z,16.80
2018-05-07T19:00:58.861Z,16.50
2018-05-07T19:05:43.127Z,15.80
2018-05-07T19:10:27.163Z,15.70
2018-05-07T19:15:12.336Z,15.70
2018-05-07T19:19:57.544Z,15.70
2018-05-07T19:24:41.643Z,15.60
2018-05-07T19:29:27.606Z,15.40
2018-05-07T19:39:47.077Z,15.30
2018-05-07T19:44:53.956Z,15.40
2018-05-07T20:00:15.883Z,14.80
2018-05-07T20:04:59.979Z,14.60
2018-05-07T20:09:44.199Z,14.60
2018-05-07T20:30:58.285Z,14.40
2018-05-07T20:41:18.858Z,14.10
2018-05-07T20:46:09.227Z,13.90
2018-05-07T20:51:18.101Z,13.80
2018-05-07T20:56:02.376Z,13.60
2018-05-07T21:00:46.790Z,13.30
2018-05-07T21:05:31.566Z,13.30
2018-05-07T21:10:16.639Z,12.80
2018-05-07T21:15:00.173Z,12.80
2018-05-07T21:19:44.871Z,12.60
2018-05-07T21:24:28.510Z,12.50
2018-05-07T21:29:12.266Z,12.40
2018-05-07T21:33:55.671Z,12.20
2018-05-07T21:38:40.227Z,12.20
2018-05-07T21:43:24.661Z,12.10
2018-05-07T21:48:08.102Z,12.10
2018-05-07T21:52:55.127Z,12.10
2018-05-07T21:57:42.947Z,12.10
2018-05-07T22:02:27.279Z,12.30
2018-05-07T22:07:10.735Z,12.30
2018-05-07T22:11:54.319Z,12.50
2018-05-07T22:16:37.673Z,12.50
2018-05-07T22:21:21.890Z,12.50
2018-05-07T22:26:05.825Z,12.40
2018-05-07T22:30:52.191Z,12.30
2018-05-07T22:35:35.777Z,12.30
2018-05-07T22:40:20.014Z,12.00
2018-05-07T22:45:03.302Z,12.00
2018-05-07T22:49:46.702Z,11.90
2018-05-07T22:54:30.236Z,11.70
2018-05-07T22:59:13.609Z,11.70
2018-05-07T23:03:57.028Z,11.70
2018-05-07T23:08:40.771Z,11.60
2018-05-07T23:13:24.248Z,11.30
2018-05-07T23:18:07.649Z,11.20
2018-05-07T23:22:51.037Z,11.50
2018-05-07T23:27:35.329Z,11.70
2018-05-07T23:32:19.325Z,11.70
2018-05-07T23:37:03.529Z,10.90
2018-05-07T23:41:47.763Z,10.50
2018-05-07T23:46:31.295Z,10.40
2018-05-07T23:51:14.718Z,10.20
2018-05-07T23:55:58.316Z,10.00
